Las Palmas, Spain
Current Conditions -  °F | °C
As of 2:30 AM on Sunday 21 Dec 2014 (Local Time) from GCLP Reporting Station
Few Clouds Few Clouds  
Wind Chill: 63°   Ceiling: Unl
Heat Index: 63°   Visibility: 6mi
Dew Point: 57°   Wind: 12mph
Humidity: 82%   Direction: 350°N
Pressure: 30.33"   Gusts: NA
Location:  28.12°N, 15.43°W
Report Text: GCLP 210230Z 35010KT 9999 FEW017 17/14 Q1027 NOSIG
Loading
Personal Weather Stations






























Interactive Weather Map New forecast layout! Learn more

10-Day Weather Forecast

Advertisements
Track Severe Weather on mobile